createdAt,value
2022-08-19T00:00:28.000Z,87
2022-08-19T00:01:55.000Z,87
2022-08-19T00:04:01.000Z,87
2022-08-19T00:05:28.000Z,87
2022-08-19T00:07:34.000Z,87
2022-08-19T00:09:01.000Z,87
2022-08-19T00:11:07.000Z,87
2022-08-19T00:12:38.000Z,86
2022-08-19T00:14:52.000Z,88
2022-08-19T00:16:19.000Z,87
2022-08-19T00:18:31.000Z,88
2022-08-19T00:19:57.000Z,87
2022-08-19T00:22:04.000Z,87
2022-08-19T00:24:55.000Z,86
2022-08-19T00:26:23.000Z,87
2022-08-19T00:28:29.000Z,87
2022-08-19T00:29:56.000Z,85
2022-08-19T00:32:02.000Z,87
2022-08-19T00:33:30.000Z,87
2022-08-19T00:35:39.000Z,86
2022-08-19T00:37:05.000Z,86
2022-08-19T00:39:14.000Z,86
2022-08-19T00:40:40.000Z,86
2022-08-19T00:42:46.000Z,86
2022-08-19T00:44:13.000Z,88
2022-08-19T00:46:19.000Z,88
2022-08-19T00:47:46.000Z,86
2022-08-19T00:49:52.000Z,85
2022-08-19T00:51:18.000Z,85
2022-08-19T00:53:24.000Z,86
2022-08-19T00:54:51.000Z,84
2022-08-19T00:56:58.000Z,85
2022-08-19T00:58:25.000Z,85
2022-08-19T01:00:31.000Z,86
2022-08-19T01:03:22.000Z,86
2022-08-19T01:04:49.000Z,86
2022-08-19T01:06:55.000Z,86
2022-08-19T01:08:21.000Z,85
2022-08-19T01:10:27.000Z,85
2022-08-19T01:11:54.000Z,85
2022-08-19T01:14:00.000Z,84
2022-08-19T01:15:27.000Z,84
2022-08-19T01:17:33.000Z,85
2022-08-19T01:18:59.000Z,84
2022-08-19T01:21:05.000Z,84
2022-08-19T01:22:32.000Z,84
2022-08-19T01:24:40.000Z,83
2022-08-19T01:26:16.000Z,84
2022-08-19T01:28:22.000Z,84
2022-08-19T01:30:06.000Z,84
2022-08-19T01:33:45.000Z,83
2022-08-19T01:34:19.000Z,84
2022-08-19T01:35:45.000Z,83
2022-08-19T01:37:52.000Z,83
2022-08-19T01:39:18.000Z,83
2022-08-19T01:41:24.000Z,83
2022-08-19T01:44:09.000Z,84
2022-08-19T01:45:44.000Z,84
2022-08-19T01:47:50.000Z,84
2022-08-19T01:49:28.000Z,84
2022-08-19T01:51:34.000Z,84
2022-08-19T01:53:06.000Z,84
2022-08-19T01:55:14.000Z,84
2022-08-19T01:56:40.000Z,83
2022-08-19T01:58:46.000Z,84
2022-08-19T02:00:13.000Z,83
2022-08-19T02:02:19.000Z,84
2022-08-19T02:03:45.000Z,83
2022-08-19T02:05:51.000Z,83
2022-08-19T02:07:18.000Z,83
2022-08-19T02:09:24.000Z,83
2022-08-19T02:10:50.000Z,84
2022-08-19T02:12:57.000Z,84
2022-08-19T02:14:23.000Z,83
2022-08-19T02:16:29.000Z,84
2022-08-19T02:17:56.000Z,84
2022-08-19T02:20:02.000Z,84
2022-08-19T02:22:53.000Z,84
2022-08-19T02:24:20.000Z,84
2022-08-19T02:26:26.000Z,84
2022-08-19T02:27:53.000Z,84
2022-08-19T02:31:25.000Z,84
2022-08-19T02:33:31.000Z,84
2022-08-19T02:34:58.000Z,84
2022-08-19T02:37:04.000Z,84
2022-08-19T02:38:30.000Z,84
2022-08-19T02:40:36.000Z,84
2022-08-19T02:42:03.000Z,84
2022-08-19T02:44:09.000Z,84
2022-08-19T02:45:57.000Z,84
2022-08-19T02:48:03.000Z,84
2022-08-19T02:49:44.000Z,84
2022-08-19T02:51:50.000Z,84
2022-08-19T02:53:16.000Z,84
2022-08-19T02:55:23.000Z,84
2022-08-19T02:56:49.000Z,84
2022-08-19T02:58:55.000Z,85
2022-08-19T03:01:46.000Z,85
2022-08-19T03:03:13.000Z,85
2022-08-19T03:05:19.000Z,85
2022-08-19T03:07:13.000Z,85
2022-08-19T03:09:19.000Z,84
2022-08-19T03:10:45.000Z,85
2022-08-19T03:12:51.000Z,85
2022-08-19T03:14:18.000Z,85
2022-08-19T03:16:24.000Z,85
2022-08-19T03:17:51.000Z,85
2022-08-19T03:19:57.000Z,85
2022-08-19T03:21:23.000Z,84
2022-08-19T03:23:29.000Z,84
2022-08-19T03:24:56.000Z,84
2022-08-19T03:27:02.000Z,84
2022-08-19T03:28:28.000Z,85
2022-08-19T03:30:35.000Z,85
2022-08-19T03:32:01.000Z,85
2022-08-19T03:34:10.000Z,85
2022-08-19T03:35:38.000Z,85
2022-08-19T03:37:44.000Z,85
2022-08-19T03:40:35.000Z,85
2022-08-19T03:42:01.000Z,85
2022-08-19T03:44:54.000Z,86
2022-08-19T03:46:21.000Z,86
2022-08-19T03:48:27.000Z,86
2022-08-19T03:49:54.000Z,86
2022-08-19T03:52:00.000Z,86
2022-08-19T03:53:26.000Z,85
2022-08-19T03:55:32.000Z,85
2022-08-19T03:56:59.000Z,85
2022-08-19T03:59:05.000Z,86
2022-08-19T04:00:31.000Z,86
2022-08-19T04:02:38.000Z,86
2022-08-19T04:04:04.000Z,86
2022-08-19T04:06:11.000Z,87
2022-08-19T04:07:37.000Z,87
2022-08-19T04:09:43.000Z,87
2022-08-19T04:11:10.000Z,87
2022-08-19T04:13:16.000Z,87
2022-08-19T04:14:42.000Z,88
2022-08-19T04:16:49.000Z,88
2022-08-19T04:19:40.000Z,87
2022-08-19T04:21:06.000Z,87
2022-08-19T04:23:12.000Z,87
2022-08-19T04:24:39.000Z,86
2022-08-19T04:26:45.000Z,87
2022-08-19T04:28:12.000Z,86
2022-08-19T04:30:18.000Z,87
2022-08-19T04:31:44.000Z,87
2022-08-19T04:33:50.000Z,86
2022-08-19T04:35:17.000Z,88
2022-08-19T04:37:28.000Z,87
2022-08-19T04:39:01.000Z,88
2022-08-19T04:41:08.000Z,88
2022-08-19T04:42:34.000Z,88
2022-08-19T04:44:40.000Z,88
2022-08-19T04:46:12.000Z,87
2022-08-19T04:48:44.000Z,88
2022-08-19T04:50:16.000Z,88
2022-08-19T04:52:22.000Z,88
2022-08-19T04:53:48.000Z,88
2022-08-19T04:55:55.000Z,89
2022-08-19T04:58:46.000Z,88
2022-08-19T05:00:12.000Z,88
2022-08-19T05:02:18.000Z,88
2022-08-19T05:03:45.000Z,89
2022-08-19T05:05:51.000Z,89
2022-08-19T05:07:17.000Z,88
2022-08-19T05:09:23.000Z,87
2022-08-19T05:10:50.000Z,88
2022-08-19T05:12:56.000Z,87
2022-08-19T05:14:22.000Z,87
2022-08-19T05:16:29.000Z,88
2022-08-19T05:17:55.000Z,87
2022-08-19T05:20:01.000Z,88
2022-08-19T05:21:28.000Z,87
2022-08-19T05:23:34.000Z,87
2022-08-19T05:25:00.000Z,88
2022-08-19T05:27:19.000Z,85
2022-08-19T05:28:45.000Z,87
2022-08-19T05:30:52.000Z,87
2022-08-19T05:32:18.000Z,87
2022-08-19T05:34:24.000Z,86
2022-08-19T05:37:16.000Z,87
2022-08-19T05:38:42.000Z,87
2022-08-19T05:40:49.000Z,85
2022-08-19T05:42:15.000Z,87
2022-08-19T05:44:21.000Z,87
2022-08-19T05:45:48.000Z,87
2022-08-19T05:47:54.000Z,87
2022-08-19T05:49:20.000Z,87
2022-08-19T05:51:26.000Z,87
2022-08-19T05:52:55.000Z,86
2022-08-19T05:55:01.000Z,85
2022-08-19T05:56:28.000Z,86
2022-08-19T05:58:34.000Z,87
2022-08-19T06:00:01.000Z,86
2022-08-19T06:02:07.000Z,86
2022-08-19T06:03:34.000Z,87
2022-08-19T06:05:40.000Z,87
2022-08-19T06:07:18.000Z,86
2022-08-19T06:09:24.000Z,86
2022-08-19T06:10:51.000Z,85
2022-08-19T06:12:57.000Z,85
2022-08-19T06:15:48.000Z,86
2022-08-19T06:17:15.000Z,85
2022-08-19T06:19:21.000Z,85
2022-08-19T06:20:47.000Z,85
2022-08-19T06:23:02.000Z,85
2022-08-19T06:24:28.000Z,85
2022-08-19T06:26:34.000Z,85
2022-08-19T06:28:01.000Z,85
2022-08-19T06:30:21.000Z,85
2022-08-19T06:31:48.000Z,84
2022-08-19T06:33:54.000Z,85
2022-08-19T06:35:20.000Z,85
2022-08-19T06:37:26.000Z,84
2022-08-19T06:38:53.000Z,83
2022-08-19T06:40:59.000Z,84
2022-08-19T06:42:26.000Z,83
2022-08-19T06:44:32.000Z,83
2022-08-19T06:45:58.000Z,83
2022-08-19T06:48:05.000Z,83
2022-08-19T06:49:32.000Z,82
2022-08-19T06:51:38.000Z,82
2022-08-19T06:54:35.000Z,82
2022-08-19T06:56:22.000Z,82
2022-08-19T06:58:28.000Z,81
2022-08-19T06:59:58.000Z,81
2022-08-19T07:02:04.000Z,81
2022-08-19T07:03:30.000Z,81
2022-08-19T07:05:38.000Z,81
2022-08-19T07:07:05.000Z,81
2022-08-19T07:09:26.000Z,81
2022-08-19T07:10:52.000Z,81
2022-08-19T07:12:58.000Z,80
2022-08-19T07:14:25.000Z,80
2022-08-19T07:16:31.000Z,80
2022-08-19T07:17:58.000Z,80
2022-08-19T07:20:04.000Z,79
2022-08-19T07:21:33.000Z,80
2022-08-19T07:23:43.000Z,79
2022-08-19T07:25:10.000Z,78
2022-08-19T07:27:16.000Z,79
2022-08-19T07:28:42.000Z,79
2022-08-19T07:30:57.000Z,79
2022-08-19T07:33:48.000Z,79
2022-08-19T07:35:14.000Z,78
2022-08-19T07:37:21.000Z,77
2022-08-19T07:38:47.000Z,77
2022-08-19T07:40:53.000Z,77
2022-08-19T07:42:20.000Z,77
2022-08-19T07:44:26.000Z,76
2022-08-19T07:45:52.000Z,76
2022-08-19T07:47:59.000Z,76
2022-08-19T07:49:26.000Z,75
2022-08-19T07:51:32.000Z,75
2022-08-19T07:53:03.000Z,76
2022-08-19T07:55:09.000Z,76
2022-08-19T07:57:09.000Z,75
2022-08-19T07:59:15.000Z,75
2022-08-19T08:00:41.000Z,75
2022-08-19T08:02:48.000Z,75
2022-08-19T08:04:16.000Z,75
2022-08-19T08:06:22.000Z,75
2022-08-19T08:07:48.000Z,75
2022-08-19T08:12:47.000Z,74
2022-08-19T08:14:35.000Z,74
2022-08-19T08:16:41.000Z,74
2022-08-19T08:18:13.000Z,75
2022-08-19T08:20:20.000Z,74
2022-08-19T08:21:47.000Z,74
2022-08-19T08:23:53.000Z,74
2022-08-19T08:25:22.000Z,74
2022-08-19T08:27:28.000Z,73
2022-08-19T08:28:59.000Z,73
2022-08-19T08:31:05.000Z,73
2022-08-19T08:32:36.000Z,73
2022-08-19T08:34:44.000Z,73
2022-08-19T08:36:10.000Z,73
2022-08-19T08:38:16.000Z,72
2022-08-19T08:39:43.000Z,72
2022-08-19T08:41:49.000Z,72
2022-08-19T08:43:16.000Z,72
2022-08-19T08:45:22.000Z,72
2022-08-19T08:46:48.000Z,71
2022-08-19T08:48:58.000Z,72
2022-08-19T08:51:50.000Z,71
2022-08-19T08:53:25.000Z,71
2022-08-19T08:55:36.000Z,71
2022-08-19T08:57:03.000Z,71
2022-08-19T08:59:09.000Z,70
2022-08-19T09:00:36.000Z,70
2022-08-19T09:02:42.000Z,71
2022-08-19T09:04:10.000Z,69
2022-08-19T09:06:16.000Z,70
2022-08-19T09:07:43.000Z,69
2022-08-19T09:09:53.000Z,69
2022-08-19T09:11:22.000Z,69
2022-08-19T09:13:50.000Z,69
2022-08-19T09:15:16.000Z,69
2022-08-19T09:17:23.000Z,69
2022-08-19T09:18:49.000Z,69
2022-08-19T09:20:56.000Z,69
2022-08-19T09:22:23.000Z,69
2022-08-19T09:24:33.000Z,68
2022-08-19T09:25:59.000Z,68
2022-08-19T09:28:05.000Z,68
2022-08-19T09:31:13.000Z,67
2022-08-19T09:32:40.000Z,67
2022-08-19T09:34:46.000Z,65
2022-08-19T09:36:17.000Z,65
2022-08-19T09:38:40.000Z,65
2022-08-19T09:40:10.000Z,65
2022-08-19T09:42:18.000Z,64
2022-08-19T09:43:56.000Z,63
2022-08-19T09:46:03.000Z,63
2022-08-19T09:47:29.000Z,62
2022-08-19T09:49:37.000Z,62
2022-08-19T09:51:05.000Z,61
2022-08-19T09:53:11.000Z,60
2022-08-19T09:54:37.000Z,60
2022-08-19T09:56:43.000Z,60
2022-08-19T09:58:10.000Z,60
2022-08-19T10:00:16.000Z,60
2022-08-19T10:01:43.000Z,60
2022-08-19T10:03:49.000Z,58
2022-08-19T10:05:16.000Z,58
2022-08-19T10:07:29.000Z,57
2022-08-19T10:10:27.000Z,56
2022-08-19T10:11:53.000Z,56
2022-08-19T10:14:00.000Z,56
2022-08-19T10:15:27.000Z,56
2022-08-19T10:17:35.000Z,55
2022-08-19T10:19:03.000Z,55
2022-08-19T10:21:12.000Z,56
2022-08-19T10:22:38.000Z,57
2022-08-19T10:24:44.000Z,54
2022-08-19T10:26:11.000Z,54
2022-08-19T10:28:17.000Z,56
2022-08-19T10:29:46.000Z,55
2022-08-19T10:31:52.000Z,54
2022-08-19T10:33:28.000Z,55
2022-08-19T10:35:59.000Z,55
2022-08-19T10:37:25.000Z,54
2022-08-19T10:39:38.000Z,50
2022-08-19T10:41:10.000Z,52
2022-08-19T10:43:16.000Z,52
2022-08-19T10:44:42.000Z,52
2022-08-19T10:46:48.000Z,53
2022-08-19T10:49:41.000Z,51
2022-08-19T10:51:07.000Z,52
2022-08-19T10:53:13.000Z,52
2022-08-19T10:54:40.000Z,51
2022-08-19T10:56:46.000Z,53
2022-08-19T10:58:13.000Z,52
2022-08-19T11:00:19.000Z,52
2022-08-19T11:01:45.000Z,51
2022-08-19T11:03:52.000Z,51
2022-08-19T11:05:18.000Z,52
2022-08-19T11:07:24.000Z,52
2022-08-19T11:08:51.000Z,52
2022-08-19T11:10:57.000Z,51
2022-08-19T11:12:24.000Z,52
2022-08-19T11:14:30.000Z,52
2022-08-19T11:16:00.000Z,52
2022-08-19T11:18:12.000Z,51
2022-08-19T11:19:39.000Z,52
2022-08-19T11:23:27.000Z,51
2022-08-19T11:25:33.000Z,52
2022-08-19T11:28:24.000Z,51
2022-08-19T11:29:51.000Z,52
2022-08-19T11:31:57.000Z,51
2022-08-19T11:33:24.000Z,52
2022-08-19T11:35:30.000Z,52
2022-08-19T11:36:56.000Z,52
2022-08-19T11:39:02.000Z,51
2022-08-19T11:40:29.000Z,51
2022-08-19T11:42:35.000Z,51
2022-08-19T11:44:02.000Z,50
2022-08-19T11:46:08.000Z,51
2022-08-19T11:47:34.000Z,51
2022-08-19T11:49:40.000Z,52
2022-08-19T11:51:07.000Z,52
2022-08-19T11:53:13.000Z,50
2022-08-19T11:54:40.000Z,51
2022-08-19T11:56:46.000Z,51
2022-08-19T11:58:12.000Z,51
2022-08-19T12:00:25.000Z,51
2022-08-19T12:01:51.000Z,51
2022-08-19T12:04:00.000Z,50
2022-08-19T12:06:52.000Z,52
2022-08-19T12:08:18.000Z,50
2022-08-19T12:10:24.000Z,50
2022-08-19T12:11:52.000Z,50
2022-08-19T12:13:59.000Z,50
2022-08-19T12:15:25.000Z,48
2022-08-19T12:17:31.000Z,48
2022-08-19T12:18:58.000Z,48
2022-08-19T12:21:04.000Z,46
2022-08-19T12:22:31.000Z,46
2022-08-19T12:24:37.000Z,47
2022-08-19T12:26:03.000Z,45
2022-08-19T12:28:10.000Z,47
2022-08-19T12:29:36.000Z,46
2022-08-19T12:31:42.000Z,46
2022-08-19T12:33:09.000Z,46
2022-08-19T12:35:15.000Z,47
2022-08-19T12:36:42.000Z,46
2022-08-19T12:38:48.000Z,45
2022-08-19T12:40:14.000Z,46
2022-08-19T12:42:21.000Z,46
2022-08-19T12:45:12.000Z,45
2022-08-19T12:46:38.000Z,45
2022-08-19T12:48:45.000Z,46
2022-08-19T12:50:12.000Z,46
2022-08-19T12:52:18.000Z,46
2022-08-19T12:53:49.000Z,46
2022-08-19T12:55:56.000Z,45
2022-08-19T12:57:22.000Z,46
2022-08-19T12:59:30.000Z,47
2022-08-19T13:00:56.000Z,47
2022-08-19T13:03:03.000Z,46
2022-08-19T13:04:29.000Z,47
2022-08-19T13:06:35.000Z,46
2022-08-19T13:08:02.000Z,46
2022-08-19T13:10:08.000Z,46
2022-08-19T13:11:35.000Z,46
2022-08-19T13:13:41.000Z,45
2022-08-19T13:15:07.000Z,45
2022-08-19T13:17:17.000Z,44
2022-08-19T13:18:43.000Z,44
2022-08-19T13:20:50.000Z,44
2022-08-19T13:23:43.000Z,44
2022-08-19T13:25:10.000Z,44
2022-08-19T13:27:16.000Z,44
2022-08-19T13:28:42.000Z,45
2022-08-19T13:30:49.000Z,44
2022-08-19T13:32:15.000Z,45
2022-08-19T13:34:24.000Z,45
2022-08-19T13:35:51.000Z,44
2022-08-19T13:37:57.000Z,45
2022-08-19T13:39:24.000Z,43
2022-08-19T13:41:30.000Z,45
2022-08-19T13:42:57.000Z,45
2022-08-19T13:45:03.000Z,45
2022-08-19T13:46:30.000Z,45
2022-08-19T13:48:36.000Z,45
2022-08-19T13:50:02.000Z,45
2022-08-19T13:52:09.000Z,46
2022-08-19T13:53:35.000Z,44
2022-08-19T13:55:41.000Z,45
2022-08-19T13:57:08.000Z,44
2022-08-19T13:59:14.000Z,44
2022-08-19T14:02:05.000Z,45
2022-08-19T14:03:32.000Z,47
2022-08-19T14:05:38.000Z,46
2022-08-19T14:07:04.000Z,46
2022-08-19T14:09:11.000Z,46
2022-08-19T14:10:37.000Z,46
2022-08-19T14:12:43.000Z,46
2022-08-19T14:14:10.000Z,47
2022-08-19T14:16:22.000Z,47
2022-08-19T14:17:48.000Z,45
2022-08-19T14:19:55.000Z,46
2022-08-19T14:21:21.000Z,47
2022-08-19T14:23:27.000Z,46
2022-08-19T14:24:54.000Z,46
2022-08-19T14:27:00.000Z,46
2022-08-19T14:28:27.000Z,46
2022-08-19T14:30:34.000Z,47
2022-08-19T14:32:00.000Z,47
2022-08-19T14:34:07.000Z,46
2022-08-19T14:35:33.000Z,47
2022-08-19T14:37:39.000Z,47
2022-08-19T14:40:36.000Z,46
2022-08-19T14:42:03.000Z,47
2022-08-19T14:44:14.000Z,46
2022-08-19T14:45:40.000Z,46
2022-08-19T14:47:47.000Z,46
2022-08-19T14:49:14.000Z,46
2022-08-19T14:51:20.000Z,46
2022-08-19T14:52:46.000Z,46
2022-08-19T14:54:52.000Z,47
2022-08-19T14:56:19.000Z,46
2022-08-19T14:58:26.000Z,46
2022-08-19T14:59:56.000Z,46
2022-08-19T15:02:02.000Z,45
2022-08-19T15:04:01.000Z,45
2022-08-19T15:06:07.000Z,44
2022-08-19T15:07:34.000Z,45
2022-08-19T15:09:40.000Z,44
2022-08-19T15:11:07.000Z,44
2022-08-19T15:13:13.000Z,42
2022-08-19T15:14:39.000Z,43
2022-08-19T15:16:46.000Z,43
2022-08-19T15:19:37.000Z,43
2022-08-19T15:21:03.000Z,42
2022-08-19T15:23:09.000Z,42
2022-08-19T15:24:36.000Z,43
2022-08-19T15:26:54.000Z,43
2022-08-19T15:28:20.000Z,42
2022-08-19T15:30:26.000Z,43
2022-08-19T15:31:53.000Z,42
2022-08-19T15:34:00.000Z,44
2022-08-19T15:35:27.000Z,44
2022-08-19T15:37:33.000Z,44
2022-08-19T15:39:04.000Z,45
2022-08-19T15:41:10.000Z,44
2022-08-19T15:42:37.000Z,44
2022-08-19T15:44:44.000Z,44
2022-08-19T15:46:10.000Z,43
2022-08-19T15:48:22.000Z,44
2022-08-19T15:49:49.000Z,44
2022-08-19T15:51:55.000Z,45
2022-08-19T15:53:22.000Z,45
2022-08-19T15:55:28.000Z,46
2022-08-19T15:58:25.000Z,46
2022-08-19T15:59:55.000Z,45
2022-08-19T16:02:05.000Z,46
2022-08-19T16:03:36.000Z,46
2022-08-19T16:05:47.000Z,46
2022-08-19T16:07:13.000Z,46
2022-08-19T16:09:20.000Z,46
2022-08-19T16:10:53.000Z,45
2022-08-19T16:12:59.000Z,46
2022-08-19T16:14:26.000Z,46
2022-08-19T16:16:32.000Z,46
2022-08-19T16:18:00.000Z,46
2022-08-19T16:20:06.000Z,46
2022-08-19T16:21:33.000Z,46
2022-08-19T16:23:39.000Z,46
2022-08-19T16:25:05.000Z,45
2022-08-19T16:27:12.000Z,46
2022-08-19T16:28:38.000Z,45
2022-08-19T16:30:44.000Z,45
2022-08-19T16:32:17.000Z,46
2022-08-19T16:34:23.000Z,46
2022-08-19T16:37:14.000Z,45
2022-08-19T16:38:41.000Z,45
2022-08-19T16:40:47.000Z,46
2022-08-19T16:42:13.000Z,46
2022-08-19T16:44:20.000Z,46
2022-08-19T16:45:46.000Z,46
2022-08-19T16:47:52.000Z,46
2022-08-19T16:49:19.000Z,47
2022-08-19T16:52:00.000Z,47
2022-08-19T16:53:27.000Z,47
2022-08-19T16:55:37.000Z,46
2022-08-19T16:57:03.000Z,45
2022-08-19T16:59:10.000Z,46
2022-08-19T17:00:36.000Z,47
2022-08-19T17:02:42.000Z,47
2022-08-19T17:04:09.000Z,47
2022-08-19T17:06:15.000Z,46
2022-08-19T17:07:47.000Z,47
2022-08-19T17:09:53.000Z,47
2022-08-19T17:11:21.000Z,48
2022-08-19T17:13:27.000Z,48
2022-08-19T17:16:18.000Z,48
2022-08-19T17:17:45.000Z,49
2022-08-19T17:19:51.000Z,49
2022-08-19T17:23:24.000Z,49
2022-08-19T17:25:10.000Z,49
2022-08-19T17:27:16.000Z,50
2022-08-19T17:28:42.000Z,50
2022-08-19T17:30:50.000Z,50
2022-08-19T17:32:17.000Z,50
2022-08-19T17:34:31.000Z,50
2022-08-19T17:35:57.000Z,51
2022-08-19T17:38:03.000Z,51
2022-08-19T17:39:30.000Z,51
2022-08-19T17:41:43.000Z,51
2022-08-19T17:43:09.000Z,51
2022-08-19T17:45:15.000Z,52
2022-08-19T17:46:42.000Z,52
2022-08-19T17:48:48.000Z,53
2022-08-19T17:50:18.000Z,54
2022-08-19T17:52:24.000Z,54
2022-08-19T17:55:16.000Z,55
2022-08-19T17:56:42.000Z,55
2022-08-19T17:58:48.000Z,55
2022-08-19T18:00:27.000Z,56
2022-08-19T18:02:34.000Z,55
2022-08-19T18:04:01.000Z,56
2022-08-19T18:06:07.000Z,56
2022-08-19T18:07:34.000Z,57
2022-08-19T18:09:40.000Z,57
2022-08-19T18:11:08.000Z,57
2022-08-19T18:13:15.000Z,57
2022-08-19T18:14:44.000Z,57
2022-08-19T18:16:50.000Z,57
2022-08-19T18:18:17.000Z,57
2022-08-19T18:20:23.000Z,57
2022-08-19T18:21:50.000Z,58
2022-08-19T18:23:56.000Z,58
2022-08-19T18:25:28.000Z,58
2022-08-19T18:27:34.000Z,58
2022-08-19T18:29:01.000Z,59
2022-08-19T18:31:07.000Z,58
2022-08-19T18:33:58.000Z,59
2022-08-19T18:35:25.000Z,59
2022-08-19T18:37:31.000Z,59
2022-08-19T18:38:58.000Z,59
2022-08-19T18:41:04.000Z,60
2022-08-19T18:42:30.000Z,61
2022-08-19T18:44:36.000Z,61
2022-08-19T18:46:03.000Z,62
2022-08-19T18:48:13.000Z,62
2022-08-19T18:49:54.000Z,62
2022-08-19T18:52:00.000Z,63
2022-08-19T18:53:27.000Z,62
2022-08-19T18:55:33.000Z,63
2022-08-19T18:57:00.000Z,63
2022-08-19T18:59:09.000Z,63
2022-08-19T19:00:35.000Z,63
2022-08-19T19:02:42.000Z,64
2022-08-19T19:04:08.000Z,63
2022-08-19T19:06:14.000Z,64
2022-08-19T19:07:41.000Z,64
2022-08-19T19:09:47.000Z,64
2022-08-19T19:12:38.000Z,64
2022-08-19T19:14:05.000Z,65
2022-08-19T19:16:11.000Z,64
2022-08-19T19:17:38.000Z,65
2022-08-19T19:19:45.000Z,65
2022-08-19T19:21:11.000Z,65
2022-08-19T19:23:17.000Z,65
2022-08-19T19:24:44.000Z,65
2022-08-19T19:26:50.000Z,65
2022-08-19T19:28:16.000Z,65
2022-08-19T19:30:23.000Z,66
2022-08-19T19:31:49.000Z,65
2022-08-19T19:33:55.000Z,65
2022-08-19T19:35:22.000Z,66
2022-08-19T19:37:28.000Z,66
2022-08-19T19:38:54.000Z,66
2022-08-19T19:41:00.000Z,66
2022-08-19T19:42:27.000Z,66
2022-08-19T19:44:33.000Z,66
2022-08-19T19:46:00.000Z,66
2022-08-19T19:48:06.000Z,66
2022-08-19T19:50:57.000Z,67
2022-08-19T19:52:24.000Z,67
2022-08-19T19:54:30.000Z,67
2022-08-19T19:55:57.000Z,67
2022-08-19T19:58:03.000Z,67
2022-08-19T19:59:29.000Z,67
2022-08-19T20:01:36.000Z,67
2022-08-19T20:03:02.000Z,67
2022-08-19T20:05:08.000Z,68
2022-08-19T20:06:35.000Z,67
2022-08-19T20:08:41.000Z,67
2022-08-19T20:10:07.000Z,67
2022-08-19T20:12:14.000Z,67
2022-08-19T20:13:40.000Z,67
2022-08-19T20:15:46.000Z,67
2022-08-19T20:17:13.000Z,67
2022-08-19T20:19:19.000Z,67
2022-08-19T20:20:45.000Z,67
2022-08-19T20:22:52.000Z,68
2022-08-19T20:24:18.000Z,67
2022-08-19T20:26:24.000Z,67
2022-08-19T20:29:24.000Z,68
2022-08-19T20:31:08.000Z,67
2022-08-19T20:33:14.000Z,67
2022-08-19T20:34:40.000Z,68
2022-08-19T20:36:46.000Z,68
2022-08-19T20:38:13.000Z,67
2022-08-19T20:40:19.000Z,69
2022-08-19T20:41:48.000Z,68
2022-08-19T20:43:54.000Z,68
2022-08-19T20:45:20.000Z,68
2022-08-19T20:47:39.000Z,69
2022-08-19T20:49:06.000Z,69
2022-08-19T20:51:12.000Z,68
2022-08-19T20:52:39.000Z,68
2022-08-19T20:54:45.000Z,69
2022-08-19T20:56:11.000Z,68
2022-08-19T20:58:20.000Z,68
2022-08-19T20:59:46.000Z,68
2022-08-19T21:01:52.000Z,69
2022-08-19T21:03:19.000Z,69
2022-08-19T21:05:25.000Z,69
2022-08-19T21:08:21.000Z,69
2022-08-19T21:09:48.000Z,70
2022-08-19T21:11:54.000Z,69
2022-08-19T21:13:20.000Z,70
2022-08-19T21:15:26.000Z,70
2022-08-19T21:16:53.000Z,70
2022-08-19T21:18:59.000Z,70
2022-08-19T21:20:25.000Z,69
2022-08-19T21:22:32.000Z,70
2022-08-19T21:23:58.000Z,70
2022-08-19T21:26:04.000Z,70
2022-08-19T21:27:31.000Z,71
2022-08-19T21:29:37.000Z,70
2022-08-19T21:31:04.000Z,71
2022-08-19T21:33:10.000Z,70
2022-08-19T21:34:36.000Z,70
2022-08-19T21:36:42.000Z,71
2022-08-19T21:38:09.000Z,71
2022-08-19T21:40:15.000Z,71
2022-08-19T21:41:42.000Z,71
2022-08-19T21:43:49.000Z,72
2022-08-19T21:46:41.000Z,71
2022-08-19T21:48:07.000Z,72
2022-08-19T21:50:13.000Z,71
2022-08-19T21:51:40.000Z,72
2022-08-19T21:53:46.000Z,72
2022-08-19T21:55:15.000Z,71
2022-08-19T21:57:21.000Z,72
2022-08-19T21:58:47.000Z,72
2022-08-19T22:00:53.000Z,72
2022-08-19T22:02:21.000Z,72
2022-08-19T22:04:28.000Z,72
2022-08-19T22:05:54.000Z,72
2022-08-19T22:08:00.000Z,73
2022-08-19T22:09:27.000Z,73
2022-08-19T22:11:33.000Z,72
2022-08-19T22:12:59.000Z,73
2022-08-19T22:15:06.000Z,72
2022-08-19T22:16:32.000Z,73
2022-08-19T22:18:38.000Z,73
2022-08-19T22:20:05.000Z,73
2022-08-19T22:22:12.000Z,72
2022-08-19T22:25:03.000Z,72
2022-08-19T22:26:29.000Z,73
2022-08-19T22:28:36.000Z,73
2022-08-19T22:30:02.000Z,74
2022-08-19T22:32:10.000Z,74
2022-08-19T22:33:55.000Z,74
2022-08-19T22:36:01.000Z,74
2022-08-19T22:37:27.000Z,74
2022-08-19T22:39:33.000Z,74
2022-08-19T22:41:00.000Z,74
2022-08-19T22:43:06.000Z,75
2022-08-19T22:44:32.000Z,74
2022-08-19T22:46:39.000Z,74
2022-08-19T22:48:05.000Z,75
2022-08-19T22:50:11.000Z,74
2022-08-19T22:51:40.000Z,74
2022-08-19T22:53:46.000Z,74
2022-08-19T22:55:12.000Z,75
2022-08-19T22:57:23.000Z,75
2022-08-19T22:58:49.000Z,75
2022-08-19T23:00:56.000Z,75
2022-08-19T23:03:47.000Z,76
2022-08-19T23:05:14.000Z,75
2022-08-19T23:07:20.000Z,75
2022-08-19T23:08:50.000Z,76
2022-08-19T23:10:56.000Z,75
2022-08-19T23:12:22.000Z,76
2022-08-19T23:14:28.000Z,76
2022-08-19T23:15:55.000Z,76
2022-08-19T23:18:01.000Z,77
2022-08-19T23:19:28.000Z,77
2022-08-19T23:21:34.000Z,77
2022-08-19T23:23:00.000Z,77
2022-08-19T23:25:06.000Z,77
2022-08-19T23:26:33.000Z,77
2022-08-19T23:28:42.000Z,77
2022-08-19T23:30:08.000Z,77
2022-08-19T23:32:14.000Z,77
2022-08-19T23:33:42.000Z,77
2022-08-19T23:35:58.000Z,77
2022-08-19T23:37:24.000Z,78
2022-08-19T23:39:30.000Z,77
2022-08-19T23:42:22.000Z,78
2022-08-19T23:43:48.000Z,77
2022-08-19T23:45:57.000Z,77
2022-08-19T23:47:27.000Z,78
2022-08-19T23:49:35.000Z,77
2022-08-19T23:51:02.000Z,77
2022-08-19T23:53:08.000Z,77
2022-08-19T23:54:39.000Z,78
2022-08-19T23:56:49.000Z,77
2022-08-19T23:58:16.000Z,77
